createdAt,value
2022-11-15T00:02:42.798Z,96997.25
2022-11-15T00:05:30.265Z,97016.25
2022-11-15T00:08:17.682Z,97016.22
2022-11-15T00:11:05.508Z,96997.25
2022-11-15T00:13:52.694Z,96989.22
2022-11-15T00:16:40.334Z,97000.97
2022-11-15T00:19:27.465Z,97011.94
2022-11-15T00:22:14.721Z,97018.59
2022-11-15T00:25:01.975Z,96994.22
2022-11-15T00:27:51.996Z,97013.47
2022-11-15T00:30:39.409Z,96976.59
2022-11-15T00:33:26.206Z,97001.19
2022-11-15T00:36:13.477Z,96978.22
2022-11-15T00:39:00.285Z,96971.94
2022-11-15T00:41:47.291Z,97004.94
2022-11-15T00:44:34.523Z,96984.22
2022-11-15T00:47:24.200Z,97002.31
2022-11-15T00:50:15.010Z,96968.59
2022-11-15T00:53:02.636Z,96993.28
2022-11-15T00:55:49.826Z,96947.75
2022-11-15T00:58:37.386Z,96986.81
2022-11-15T01:01:24.711Z,96974.34
2022-11-15T01:04:11.875Z,96988.69
2022-11-15T01:06:58.885Z,96982.75
2022-11-15T01:09:46.256Z,97001.59
2022-11-15T01:12:33.855Z,96964.22
2022-11-15T01:15:21.190Z,96969.94
2022-11-15T01:18:08.222Z,96978.47
2022-11-15T01:20:55.454Z,96916.03
2022-11-15T01:23:42.601Z,96973.47
2022-11-15T01:26:29.985Z,96998.72
2022-11-15T01:29:17.471Z,96961.63
2022-11-15T01:32:04.517Z,96969.19
2022-11-15T01:34:51.895Z,96976.38
2022-11-15T01:37:39.119Z,96974.94
2022-11-15T01:40:26.419Z,96989.09
2022-11-15T01:43:45.515Z,96998.50
2022-11-15T01:46:37.763Z,96991.63
2022-11-15T01:49:28.511Z,96971.81
2022-11-15T01:52:19.665Z,96946.63
2022-11-15T01:55:15.657Z,96984.72
2022-11-15T01:58:06.487Z,96969.94
2022-11-15T02:00:54.198Z,96989.31
2022-11-15T02:03:59.216Z,96981.00
2022-11-15T02:06:48.307Z,96900.94
2022-11-15T02:09:35.208Z,96972.88
2022-11-15T02:12:23.777Z,96992.78
2022-11-15T02:15:12.502Z,96980.69
2022-11-15T02:18:09.658Z,96982.88
2022-11-15T02:21:40.938Z,97003.72
2022-11-15T02:24:45.545Z,97007.28
2022-11-15T02:28:09.388Z,97007.28
2022-11-15T02:31:00.332Z,96986.22
2022-11-15T02:34:28.721Z,97005.59
2022-11-15T02:37:20.155Z,97010.59
2022-11-15T02:40:25.594Z,96992.84
2022-11-15T02:43:35.635Z,96994.66
2022-11-15T02:47:05.016Z,97019.13
2022-11-15T02:49:59.097Z,96948.84
2022-11-15T02:52:49.746Z,96968.00
2022-11-15T02:55:43.752Z,96984.56
2022-11-15T02:58:42.168Z,97003.47
2022-11-15T03:02:04.460Z,97013.91
2022-11-15T03:05:20.716Z,96963.09
2022-11-15T03:08:07.333Z,97011.41
2022-11-15T03:11:11.464Z,97003.25
2022-11-15T03:14:12.547Z,97008.59
2022-11-15T03:17:02.114Z,97016.22
2022-11-15T03:19:54.837Z,96993.72
2022-11-15T03:22:46.552Z,97010.16
2022-11-15T03:25:36.427Z,96932.78
2022-11-15T03:28:30.243Z,97015.88
2022-11-15T03:31:39.138Z,97021.09
2022-11-15T03:34:28.749Z,97017.41
2022-11-15T03:37:18.408Z,96964.53
2022-11-15T03:40:06.390Z,97027.03
2022-11-15T03:43:12.366Z,97000.03
2022-11-15T03:46:08.938Z,97027.25
2022-11-15T03:49:10.076Z,97031.41
2022-11-15T03:52:00.674Z,96986.22
2022-11-15T03:54:57.624Z,96957.03
2022-11-15T03:57:45.702Z,96977.03
2022-11-15T04:00:32.536Z,97004.66
2022-11-15T04:03:19.518Z,97007.06
2022-11-15T04:06:07.017Z,96991.44
2022-11-15T04:08:53.897Z,97015.69
2022-11-15T04:11:40.515Z,96950.84
2022-11-15T04:14:27.655Z,97034.56
2022-11-15T04:17:14.584Z,97022.94
2022-11-15T04:20:19.900Z,97008.75
2022-11-15T04:23:29.579Z,97034.56
2022-11-15T04:26:22.942Z,97017.06
2022-11-15T04:29:28.538Z,97017.69
2022-11-15T04:32:15.650Z,97021.03
2022-11-15T04:35:02.344Z,96883.34
2022-11-15T04:37:49.683Z,97024.34
2022-11-15T04:40:38.453Z,96999.13
2022-11-15T04:43:28.094Z,97010.28
2022-11-15T04:46:15.195Z,97017.03
2022-11-15T04:49:02.691Z,97023.75
2022-11-15T04:51:49.853Z,96978.06
2022-11-15T04:54:36.730Z,97018.06
2022-11-15T04:57:23.847Z,97022.81
2022-11-15T05:00:18.700Z,97045.09
2022-11-15T05:03:23.778Z,97037.09
2022-11-15T05:06:10.647Z,97031.28
2022-11-15T05:08:57.781Z,97046.16
2022-11-15T05:11:48.632Z,97035.94
2022-11-15T05:14:35.607Z,97060.34
2022-11-15T05:17:22.737Z,97046.91
2022-11-15T05:20:11.000Z,97023.72
2022-11-15T05:22:58.146Z,97038.94
2022-11-15T05:25:45.517Z,97054.78
2022-11-15T05:28:33.438Z,97003.81
2022-11-15T05:31:20.251Z,97042.53
2022-11-15T05:34:07.833Z,97043.09
2022-11-15T05:36:55.387Z,97058.38
2022-11-15T05:39:42.397Z,97061.59
2022-11-15T05:42:29.908Z,97056.69
2022-11-15T05:45:19.324Z,97058.50
2022-11-15T05:48:11.420Z,97070.25
2022-11-15T05:50:59.333Z,97050.50
2022-11-15T05:53:47.363Z,97042.38
2022-11-15T05:56:34.427Z,97051.31
2022-11-15T05:59:22.037Z,97004.66
2022-11-15T06:02:09.380Z,97050.50
2022-11-15T06:04:56.195Z,97034.78
2022-11-15T06:07:45.956Z,97048.59
2022-11-15T06:10:33.227Z,97055.53
2022-11-15T06:13:20.106Z,97053.44
2022-11-15T06:16:07.559Z,97031.66
2022-11-15T06:18:54.917Z,97048.47
2022-11-15T06:21:41.937Z,97006.69
2022-11-15T06:24:28.769Z,97049.00
2022-11-15T06:27:15.748Z,97054.31
2022-11-15T06:30:03.187Z,97070.13
2022-11-15T06:32:53.105Z,97036.81
2022-11-15T06:35:40.001Z,97042.19
2022-11-15T06:38:29.857Z,97052.03
2022-11-15T06:41:18.756Z,97055.13
2022-11-15T06:44:05.780Z,97059.09
2022-11-15T06:46:52.640Z,97058.97
2022-11-15T06:49:39.976Z,97068.03
2022-11-15T06:52:26.796Z,97058.59
2022-11-15T06:55:13.853Z,97052.56
2022-11-15T06:58:00.636Z,97068.03
2022-11-15T07:00:50.520Z,97018.97
2022-11-15T07:03:39.814Z,97035.50
2022-11-15T07:06:26.695Z,97073.97
2022-11-15T07:09:13.899Z,97036.59
2022-11-15T07:12:07.334Z,97076.59
2022-11-15T07:14:55.167Z,97058.69
2022-11-15T07:17:42.043Z,97039.63
2022-11-15T07:20:29.088Z,97059.25
2022-11-15T07:23:15.730Z,97064.69
2022-11-15T07:26:05.384Z,97038.50
2022-11-15T07:28:52.331Z,97090.75
2022-11-15T07:31:39.756Z,97060.28
2022-11-15T07:34:26.996Z,97074.31
2022-11-15T07:37:14.870Z,97075.25
2022-11-15T07:40:01.405Z,97032.16
2022-11-15T07:42:54.431Z,97039.75
2022-11-15T07:45:45.903Z,97082.81
2022-11-15T07:48:43.412Z,97095.09
2022-11-15T07:51:31.998Z,97076.03
2022-11-15T07:54:18.797Z,97092.66
2022-11-15T07:57:07.704Z,97108.28
2022-11-15T07:59:55.197Z,97094.66
2022-11-15T08:02:43.927Z,97105.72
2022-11-15T08:05:31.245Z,97115.50
2022-11-15T08:08:18.309Z,97088.22
2022-11-15T08:11:05.908Z,97054.78
2022-11-15T08:13:53.396Z,97104.19
2022-11-15T08:16:40.388Z,97108.88
2022-11-15T08:19:27.670Z,97126.91
2022-11-15T08:22:14.799Z,97121.06
2022-11-15T08:25:01.861Z,97115.81
2022-11-15T08:27:48.911Z,97080.66
2022-11-15T08:30:39.473Z,97105.50
2022-11-15T08:33:26.800Z,97133.25
2022-11-15T08:36:18.750Z,97126.97
2022-11-15T08:39:06.759Z,97127.09
2022-11-15T08:41:53.944Z,97156.63
2022-11-15T08:44:40.872Z,97106.47
2022-11-15T08:47:28.499Z,97147.72
2022-11-15T08:50:15.397Z,97144.94
2022-11-15T08:53:10.316Z,97150.88
2022-11-15T08:55:57.481Z,97150.88
2022-11-15T08:58:44.677Z,97131.22
2022-11-15T09:01:31.874Z,97171.03
2022-11-15T09:04:18.924Z,97163.75
2022-11-15T09:07:05.974Z,97160.19
2022-11-15T09:09:53.068Z,97168.75
2022-11-15T09:12:40.098Z,97187.56
2022-11-15T09:15:27.355Z,97175.66
2022-11-15T09:18:14.486Z,97175.25
2022-11-15T09:21:02.211Z,97187.59
2022-11-15T09:23:53.693Z,97174.84
2022-11-15T09:26:41.349Z,97149.50
2022-11-15T09:29:28.566Z,97199.69
2022-11-15T09:32:15.850Z,97187.38
2022-11-15T09:35:02.946Z,97194.06
2022-11-15T09:37:54.996Z,97173.28
2022-11-15T09:40:43.546Z,97217.25
2022-11-15T09:44:02.948Z,97231.63
2022-11-15T09:47:03.251Z,97187.41
2022-11-15T09:50:01.865Z,97206.19
2022-11-15T09:52:38.559Z,97213.69
2022-11-15T09:55:10.736Z,97221.00
2022-11-15T09:57:56.237Z,97242.81
2022-11-15T10:00:52.728Z,97228.09
2022-11-15T10:03:27.399Z,97260.03
2022-11-15T10:06:01.156Z,97231.88
2022-11-15T10:08:52.578Z,97267.38
2022-11-15T10:11:37.429Z,97243.16
2022-11-15T10:14:13.598Z,97248.78
2022-11-15T10:16:59.449Z,97259.53
2022-11-15T10:19:55.557Z,97278.75
2022-11-15T10:22:27.338Z,97286.59
2022-11-15T10:25:11.128Z,97286.78
2022-11-15T10:27:45.053Z,97268.44
2022-11-15T10:30:18.886Z,97290.53
2022-11-15T10:32:49.057Z,97271.53
2022-11-15T10:35:28.119Z,97272.19
2022-11-15T10:38:16.364Z,97299.13
2022-11-15T10:40:46.659Z,97297.34
2022-11-15T10:43:20.813Z,97314.56
2022-11-15T10:45:50.472Z,97313.84
2022-11-15T10:48:24.572Z,97330.56
2022-11-15T10:50:55.731Z,97339.00
2022-11-15T10:53:40.271Z,97309.97
2022-11-15T10:56:13.803Z,97331.06
2022-11-15T10:58:46.025Z,97285.41
2022-11-15T11:01:20.936Z,97338.38
2022-11-15T11:04:06.593Z,97353.59
2022-11-15T11:06:58.428Z,97345.53
2022-11-15T11:09:37.463Z,97360.50
2022-11-15T11:12:11.860Z,97355.16
2022-11-15T11:14:41.714Z,97371.56
2022-11-15T11:17:32.807Z,97367.81
2022-11-15T11:20:19.175Z,97387.03
2022-11-15T11:23:23.502Z,97362.66
2022-11-15T11:26:22.591Z,97399.66
2022-11-15T11:28:56.565Z,97391.34
2022-11-15T11:31:56.892Z,97405.34
2022-11-15T11:34:45.154Z,97412.34
2022-11-15T11:37:25.557Z,97417.69
2022-11-15T11:40:12.855Z,97414.53
2022-11-15T11:43:00.973Z,97421.41
2022-11-15T11:46:08.123Z,97422.53
2022-11-15T11:48:50.443Z,97408.81
2022-11-15T11:51:44.297Z,97416.63
2022-11-15T11:54:37.563Z,97446.03
2022-11-15T11:57:14.642Z,97380.00
2022-11-15T11:59:55.439Z,97392.84
2022-11-15T12:02:56.403Z,97403.66
2022-11-15T12:05:32.652Z,97396.94
2022-11-15T12:08:24.409Z,97444.97
2022-11-15T12:11:02.699Z,97434.72
2022-11-15T12:13:36.390Z,97456.84
2022-11-15T12:16:15.019Z,97454.34
2022-11-15T12:18:49.051Z,97457.03
2022-11-15T12:21:28.673Z,97460.31
2022-11-15T12:24:13.595Z,97481.31
2022-11-15T12:27:08.131Z,97484.97
2022-11-15T12:29:45.570Z,97484.41
2022-11-15T12:32:28.925Z,97478.75
2022-11-15T12:34:58.596Z,97496.25
2022-11-15T12:37:39.549Z,97508.72
2022-11-15T12:40:29.432Z,97520.16
2022-11-15T12:43:14.851Z,97498.03
2022-11-15T12:45:48.366Z,97492.72
2022-11-15T12:48:18.861Z,97527.91
2022-11-15T12:50:55.254Z,97533.97
2022-11-15T12:53:26.744Z,97540.84
2022-11-15T12:56:13.732Z,97541.03
2022-11-15T12:58:45.376Z,97551.47
2022-11-15T13:01:33.287Z,97545.75
2022-11-15T13:04:16.938Z,97562.16
2022-11-15T13:06:48.524Z,97535.13
2022-11-15T13:09:35.818Z,97563.16
2022-11-15T13:12:23.468Z,97555.16
2022-11-15T13:14:54.865Z,97555.06
2022-11-15T13:17:32.425Z,97551.81
2022-11-15T13:20:16.039Z,97578.72
2022-11-15T13:23:03.681Z,97579.66
2022-11-15T13:25:38.723Z,97581.53
2022-11-15T13:28:22.582Z,97575.19
2022-11-15T13:30:56.758Z,97577.53
2022-11-15T13:33:38.415Z,97536.84
2022-11-15T13:36:17.317Z,97576.03
2022-11-15T13:38:46.295Z,97588.78
2022-11-15T13:41:25.040Z,97602.41
2022-11-15T13:43:55.264Z,97602.78
2022-11-15T13:46:31.515Z,97527.59
2022-11-15T13:49:10.540Z,97598.94
2022-11-15T13:51:44.928Z,97625.88
2022-11-15T13:54:16.533Z,97633.59
2022-11-15T13:56:50.479Z,97614.25
2022-11-15T13:59:46.288Z,97629.59
2022-11-15T14:02:19.053Z,97590.09
2022-11-15T14:04:58.325Z,97620.69
2022-11-15T14:07:30.498Z,97645.84
2022-11-15T14:09:59.778Z,97640.78
2022-11-15T14:12:36.988Z,97643.41
2022-11-15T14:15:34.952Z,97658.31
2022-11-15T14:18:04.478Z,97638.44
2022-11-15T14:20:39.985Z,97668.19
2022-11-15T14:23:29.224Z,97670.78
2022-11-15T14:26:01.576Z,97642.44
2022-11-15T14:28:39.727Z,97660.16
2022-11-15T14:31:14.884Z,97668.53
2022-11-15T14:33:43.679Z,97628.44
2022-11-15T14:36:16.481Z,97699.19
2022-11-15T14:38:45.861Z,97678.41
2022-11-15T14:41:20.180Z,97664.56
2022-11-15T14:43:49.138Z,97696.84
2022-11-15T14:46:17.839Z,97708.84
2022-11-15T14:48:46.659Z,97685.94
2022-11-15T14:51:18.359Z,97709.78
2022-11-15T14:57:26.501Z,97653.91
2022-11-15T14:59:55.679Z,97722.06
2022-11-15T15:03:01.937Z,97712.66
2022-11-15T15:05:44.002Z,97711.34
2022-11-15T15:08:13.542Z,97724.78
2022-11-15T15:10:47.450Z,97705.63
2022-11-15T15:13:26.457Z,97715.25
2022-11-15T15:15:55.371Z,97730.31
2022-11-15T15:18:24.504Z,97747.00
2022-11-15T15:21:04.320Z,97739.03
2022-11-15T15:23:33.242Z,97765.34
2022-11-15T15:26:02.054Z,97752.09
2022-11-15T15:28:34.773Z,97748.66
2022-11-15T15:31:04.344Z,97705.72
2022-11-15T15:33:33.769Z,97768.38
2022-11-15T15:36:02.577Z,97753.59
2022-11-15T15:38:31.734Z,97771.59
2022-11-15T15:41:03.649Z,97760.00
2022-11-15T15:43:32.513Z,97771.78
2022-11-15T15:46:01.353Z,97777.94
2022-11-15T15:48:30.672Z,97759.53
2022-11-15T15:51:00.001Z,97801.88
2022-11-15T15:53:29.039Z,97781.19
2022-11-15T15:56:00.939Z,97811.53
2022-11-15T15:58:29.841Z,97806.59
2022-11-15T16:00:58.660Z,97823.31
2022-11-15T16:03:29.232Z,97801.22
2022-11-15T16:05:57.879Z,97807.09
2022-11-15T16:08:37.909Z,97820.06
2022-11-15T16:11:16.604Z,97848.09
2022-11-15T16:13:45.301Z,97816.00
2022-11-15T16:16:15.539Z,97842.66
2022-11-15T16:18:44.259Z,97831.88
2022-11-15T16:21:13.652Z,97834.00
2022-11-15T16:23:42.298Z,97844.56
2022-11-15T16:26:31.815Z,97853.16
2022-11-15T16:29:00.340Z,97826.41
2022-11-15T16:31:28.957Z,97851.13
2022-11-15T16:33:57.697Z,97866.84
2022-11-15T16:36:30.818Z,97884.56
2022-11-15T16:39:00.617Z,97867.75
2022-11-15T16:41:29.059Z,97896.69
2022-11-15T16:43:57.941Z,97881.69
2022-11-15T16:46:29.471Z,97908.28
2022-11-15T16:48:58.313Z,97896.56
2022-11-15T16:51:27.041Z,97763.16
2022-11-15T16:53:55.794Z,97896.13
2022-11-15T16:56:31.937Z,97895.34
2022-11-15T16:59:02.574Z,97916.13
2022-11-15T17:01:51.220Z,97899.13
2022-11-15T17:04:23.407Z,97915.03
2022-11-15T17:06:51.974Z,97910.94
2022-11-15T17:09:26.541Z,97935.81
2022-11-15T17:11:55.445Z,97930.47
2022-11-15T17:14:23.959Z,97925.03
2022-11-15T17:16:54.302Z,97922.56
2022-11-15T17:19:23.227Z,97914.38
2022-11-15T17:21:52.589Z,97882.28
2022-11-15T17:24:24.272Z,97885.09
2022-11-15T17:26:53.318Z,97919.94
2022-11-15T17:29:22.146Z,97940.03
2022-11-15T17:31:51.176Z,97950.88
2022-11-15T17:34:19.918Z,97948.34
2022-11-15T17:36:49.388Z,97936.16
2022-11-15T17:39:20.330Z,97939.81
2022-11-15T17:41:48.920Z,97967.13
2022-11-15T17:44:17.605Z,97965.81
2022-11-15T17:46:46.414Z,97968.97
2022-11-15T17:49:15.069Z,97977.59
2022-11-15T17:51:48.731Z,97972.53
2022-11-15T17:54:18.211Z,98001.63
2022-11-15T17:56:46.708Z,97994.09
2022-11-15T17:59:20.166Z,97979.22
2022-11-15T18:01:50.151Z,97910.50
2022-11-15T18:04:18.786Z,97977.88
2022-11-15T18:06:47.925Z,98013.16
2022-11-15T18:09:16.406Z,98020.09
2022-11-15T18:11:47.295Z,98003.28
2022-11-15T18:14:16.729Z,98013.56
2022-11-15T18:16:45.397Z,98006.75
2022-11-15T18:19:14.520Z,98032.63
2022-11-15T18:21:57.417Z,98022.41
2022-11-15T18:24:35.551Z,97973.75
2022-11-15T18:27:06.692Z,97990.63
2022-11-15T18:29:38.354Z,98010.78
2022-11-15T18:32:12.882Z,98021.03
2022-11-15T18:34:41.737Z,97988.81
2022-11-15T18:37:10.657Z,98008.47
2022-11-15T18:39:39.298Z,98031.09
2022-11-15T18:42:07.986Z,98043.63
2022-11-15T18:44:36.634Z,97971.78
2022-11-15T18:47:05.310Z,98024.88
2022-11-15T18:49:34.168Z,97986.13
2022-11-15T18:52:02.904Z,98034.22
2022-11-15T18:54:32.015Z,98036.91
2022-11-15T18:57:00.799Z,98044.34
2022-11-15T18:59:30.579Z,98021.63
2022-11-15T19:01:59.424Z,97960.09
2022-11-15T19:04:28.422Z,98016.97
2022-11-15T19:06:56.886Z,98059.31
2022-11-15T19:09:32.644Z,98051.63
2022-11-15T19:12:01.911Z,98071.75
2022-11-15T19:14:30.850Z,98073.56
2022-11-15T19:16:59.350Z,98037.22
2022-11-15T19:19:29.252Z,98068.66
2022-11-15T19:21:58.381Z,98026.59
2022-11-15T19:24:28.043Z,98077.25
2022-11-15T19:26:56.983Z,98045.91
2022-11-15T19:29:25.458Z,98062.09
2022-11-15T19:31:54.204Z,98033.22
2022-11-15T19:34:22.888Z,98082.56
2022-11-15T19:36:52.027Z,98062.38
2022-11-15T19:39:20.716Z,97979.84
2022-11-15T19:41:50.611Z,98073.78
2022-11-15T19:44:20.108Z,98083.97
2022-11-15T19:46:48.585Z,98073.47
2022-11-15T19:49:17.285Z,98071.16
2022-11-15T19:51:47.783Z,98071.31
2022-11-15T19:54:17.894Z,98105.75
2022-11-15T19:56:46.662Z,98027.44
2022-11-15T19:59:15.949Z,98050.38
2022-11-15T20:01:44.607Z,98070.75
2022-11-15T20:04:13.327Z,98122.38
2022-11-15T20:06:43.737Z,98110.69
2022-11-15T20:09:14.549Z,98112.75
2022-11-15T20:11:43.255Z,98126.88
2022-11-15T20:14:13.615Z,98031.50
2022-11-15T20:16:42.481Z,98120.44
2022-11-15T20:19:12.938Z,98108.91
2022-11-15T20:21:41.475Z,98116.84
2022-11-15T20:24:10.888Z,98120.47
2022-11-15T20:26:40.084Z,98076.78
2022-11-15T20:29:10.670Z,98132.88
2022-11-15T20:31:39.393Z,98143.13
2022-11-15T20:34:07.976Z,98118.88
2022-11-15T20:36:36.549Z,98118.97
2022-11-15T20:39:05.050Z,98123.47
2022-11-15T20:41:33.889Z,98116.75
2022-11-15T20:44:03.583Z,98115.97
2022-11-15T20:46:35.212Z,98138.28
2022-11-15T20:49:03.711Z,98146.06
2022-11-15T20:51:32.253Z,98156.91
2022-11-15T20:54:00.741Z,98141.94
2022-11-15T20:56:29.356Z,98161.38
2022-11-15T20:58:57.827Z,98107.22
2022-11-15T21:01:26.765Z,98170.97
2022-11-15T21:03:56.595Z,98174.41
2022-11-15T21:06:27.150Z,98144.06
2022-11-15T21:09:15.227Z,98160.25
2022-11-15T21:12:02.066Z,98189.13
2022-11-15T21:14:31.011Z,98189.66
2022-11-15T21:17:00.300Z,98135.88
2022-11-15T21:19:34.039Z,98176.50
2022-11-15T21:22:06.390Z,98191.94
2022-11-15T21:24:34.931Z,98196.22
2022-11-15T21:27:03.647Z,98173.47
2022-11-15T21:29:38.739Z,98182.78
2022-11-15T21:32:09.842Z,98220.22
2022-11-15T21:34:38.901Z,98217.63
2022-11-15T21:37:08.173Z,98186.28
2022-11-15T21:39:36.784Z,98187.97
2022-11-15T21:42:06.312Z,98174.56
2022-11-15T21:44:34.723Z,98186.72
2022-11-15T21:47:03.469Z,98212.22
2022-11-15T21:49:32.151Z,98216.56
2022-11-15T21:52:00.638Z,98209.91
2022-11-15T21:54:29.268Z,98201.59
2022-11-15T21:56:57.722Z,98222.69
2022-11-15T21:59:26.360Z,98239.56
2022-11-15T22:02:13.070Z,98217.66
2022-11-15T22:04:41.609Z,98222.19
2022-11-15T22:07:10.097Z,98214.56
2022-11-15T22:09:38.949Z,98220.66
2022-11-15T22:12:07.631Z,98202.00
2022-11-15T22:14:36.361Z,98215.56
2022-11-15T22:17:04.979Z,98226.53
2022-11-15T22:19:33.763Z,98174.81
2022-11-15T22:22:02.289Z,98156.03
2022-11-15T22:24:31.540Z,98159.44
2022-11-15T22:27:00.612Z,98232.25
2022-11-15T22:29:29.295Z,98159.47
2022-11-15T22:31:57.985Z,98236.63
2022-11-15T22:34:26.482Z,98218.88
2022-11-15T22:37:21.415Z,98240.81
2022-11-15T22:39:44.177Z,98257.00
2022-11-15T22:42:13.898Z,98242.78
2022-11-15T22:44:42.732Z,98240.06
2022-11-15T22:47:11.490Z,98236.81
2022-11-15T22:49:40.296Z,98199.66
2022-11-15T22:52:09.758Z,98258.81
2022-11-15T22:54:38.909Z,98226.00
2022-11-15T22:57:07.596Z,98093.31
2022-11-15T22:59:38.118Z,98220.13
2022-11-15T23:02:06.920Z,98216.81
2022-11-15T23:04:35.510Z,98235.97
2022-11-15T23:07:04.419Z,98229.78
2022-11-15T23:09:36.006Z,98283.13
2022-11-15T23:12:23.698Z,98233.97
2022-11-15T23:14:52.378Z,98236.50
2022-11-15T23:17:21.127Z,98290.72
2022-11-15T23:19:50.021Z,98272.22
2022-11-15T23:22:37.189Z,98133.59
2022-11-15T23:25:06.417Z,98263.06
2022-11-15T23:27:35.258Z,98207.91
2022-11-15T23:30:22.430Z,98272.34
2022-11-15T23:33:09.154Z,98302.00
2022-11-15T23:35:38.141Z,98218.34
2022-11-15T23:38:06.859Z,98294.50
2022-11-15T23:40:35.766Z,98276.91
2022-11-15T23:43:04.460Z,98319.38
2022-11-15T23:45:33.341Z,98319.56
2022-11-15T23:48:02.221Z,98288.81
2022-11-15T23:50:33.274Z,98275.81
2022-11-15T23:53:02.459Z,98276.66
2022-11-15T23:55:31.450Z,98282.63
2022-11-15T23:58:00.376Z,98292.06
